Time;durP1;ratioP1;P1;durP2;ratioP2;P2;SDS_P1;SDS_P2;PMS_P1;PMS_P2;Temp;Humidity;BMP_temperature;BMP_pressure;BME280_temperature;BME280_humidity;BME280_pressure;Samples;Min_cycle;Max_cycle;Signal;HPM_P1;HPM_P2
2021/12/19 00:00:37;;;;;;;;;;;;;;;;;;5038524;28;1238;-87
2021/12/19 00:08:48;;;;;;;;;;;;;;;;;;4994106;28;1883;-86
2021/12/19 00:11:13;;;;;;;;;;;;;;;;;;5033560;28;959;-86
2021/12/19 00:13:40;;;;;;;;;;;;;;;;;;5018618;28;1236;-86
2021/12/19 00:16:05;;;;;;;;;;;;;;;;;;5018413;28;1318;-86
2021/12/19 00:18:30;;;;;;;;;;;;;;;;;;5035706;28;1024;-86
2021/12/19 00:20:55;;;;;;;;;;;;;;;;;;5018850;28;1319;-87
2021/12/19 00:23:20;;;;;;;;;;;;;;;;;;5036320;28;1027;-87
2021/12/19 00:25:45;;;;;;;;;;;;;;;;;;5037201;28;1278;-86
2021/12/19 00:28:10;;;;;;;;;;;;;;;;;;5019686;28;1863;-87
2021/12/19 00:30:35;;;;;;;;;;;;;;;;;;5025682;28;1523;-86
2021/12/19 00:33:01;;;;;;;;;;;;;;;;;;5038078;28;1031;-87
2021/12/19 00:35:26;;;;;;;;;;;;;;;;;;5040181;28;1288;-86
2021/12/19 00:37:51;;;;;;;;;;;;;;;;;;5039820;28;1210;-87
2021/12/19 00:40:16;;;;;;;;;;;;;;;;;;5038307;28;1326;-87
2021/12/19 00:42:42;;;;;;;;;;;;;;;;;;5039711;28;1338;-86
2021/12/19 00:45:16;;;;;;;;;;;;;;;;;;5039714;28;1408;-86
2021/12/19 00:47:41;;;;;;;;;;;;;;;;;;5058200;28;1889;-86
2021/12/19 00:50:06;;;;;;;;;;;;;;;;;;5043036;28;1081;-86
2021/12/19 00:52:31;;;;;;;;;;;;;;;;;;5041210;28;1232;-86
2021/12/19 00:54:56;;;;;;;;;;;;;;;;;;5039010;28;1306;-86
2021/12/19 00:57:21;;;;;;;;;;;;;;;;;;5031238;28;1692;-86
2021/12/19 00:59:46;;;;;;;;;;;;;;;;;;5033107;28;1431;-86
2021/12/19 01:02:11;;;;;;;;;;;;;;;;;;5056263;28;1435;-87
2021/12/19 01:04:36;;;;;;;;;;;;;;;;;;5051644;28;1479;-86
2021/12/19 01:07:02;;;;;;;;;;;;;;;;;;5039051;28;1878;-86
2021/12/19 01:09:27;;;;;;;;;;;;;;;;;;5039277;28;1267;-87
2021/12/19 01:11:52;;;;;;;;;;;;;;;;;;5059490;28;928;-87
2021/12/19 01:14:17;;;;;;;;;;;;;;;;;;5042125;28;1507;-86
2021/12/19 01:16:42;;;;;;;;;;;;;;;;;;5061052;28;991;-87
2021/12/19 01:19:07;;;;;;;;;;;;;;;;;;5060541;28;829;-87
2021/12/19 01:21:32;;;;;;;;;;;;;;;;;;5042228;28;1290;-86
2021/12/19 01:23:57;;;;;;;;;;;;;;;;;;5032297;28;1447;-87
2021/12/19 01:26:23;;;;;;;;;;;;;;;;;;5020786;28;1293;-86
2021/12/19 01:28:48;;;;;;;;;;;;;;;;;;5022037;28;1890;-87
2021/12/19 01:31:13;;;;;;;;;;;;;;;;;;5022477;28;1325;-87
2021/12/19 01:33:38;;;;;;;;;;;;;;;;;;5048592;28;1471;-87
2021/12/19 01:36:03;;;;;;;;;;;;;;;;;;5036589;28;1590;-86
2021/12/19 01:38:30;;;;;;;;;;;;;;;;;;5041635;28;1305;-87
2021/12/19 01:40:55;;;;;;;;;;;;;;;;;;5043094;28;1264;-87
2021/12/19 01:43:20;;;;;;;;;;;;;;;;;;5060993;28;1007;-86
2021/12/19 01:45:45;;;;;;;;;;;;;;;;;;5040510;28;1350;-87
2021/12/19 01:48:10;;;;;;;;;;;;;;;;;;5029180;28;1879;-87
2021/12/19 01:50:35;;;;;;;;;;;;;;;;;;5021371;28;1506;-86
2021/12/19 01:53:00;;;;;;;;;;;;;;;;;;5041145;28;1251;-87
2021/12/19 01:55:25;;;;;;;;;;;;;;;;;;5056713;28;1459;-86
2021/12/19 01:57:50;;;;;;;;;;;;;;;;;;5039771;28;1315;-87
2021/12/19 02:00:15;;;;;;;;;;;;;;;;;;5040099;28;1188;-87
2021/12/19 02:02:40;;;;;;;;;;;;;;;;;;5031263;28;1521;-86
2021/12/19 02:05:05;;;;;;;;;;;;;;;;;;5019930;28;1486;-86
2021/12/19 02:07:30;;;;;;;;;;;;;;;;;;5024046;28;1894;-87
2021/12/19 02:09:56;;;;;;;;;;;;;;;;;;5058360;28;833;-86
2021/12/19 02:12:21;;;;;;;;;;;;;;;;;;5039989;28;1164;-87
2021/12/19 02:14:46;;;;;;;;;;;;;;;;;;5039609;28;1230;-87
2021/12/19 02:17:11;;;;;;;;;;;;;;;;;;5034205;28;1510;-87
2021/12/19 02:19:36;;;;;;;;;;;;;;;;;;5019590;28;1323;-86
2021/12/19 02:22:01;;;;;;;;;;;;;;;;;;5020103;28;1335;-87
2021/12/19 02:24:26;;;;;;;;;;;;;;;;;;5020191;28;1340;-87
2021/12/19 02:26:51;;;;;;;;;;;;;;;;;;5019557;28;1353;-87
2021/12/19 02:29:16;;;;;;;;;;;;;;;;;;5019153;28;1894;-87
2021/12/19 02:31:41;;;;;;;;;;;;;;;;;;5026188;28;1443;-87
2021/12/19 02:34:23;;;;;;;;;;;;;;;;;;5038832;28;1365;-86
2021/12/19 02:36:57;;;;;;;;;;;;;;;;;;5028732;28;1449;-87
2021/12/19 02:49:58;;;;;;;;;;;;;;;;;;5037384;28;643;-87
2021/12/19 02:52:23;;;;;;;;;;;;;;;;;;5019724;28;1325;-86
2021/12/19 02:54:48;;;;;;;;;;;;;;;;;;5019929;28;1303;-87
2021/12/19 02:57:13;;;;;;;;;;;;;;;;;;5037607;28;1368;-86
2021/12/19 02:59:38;;;;;;;;;;;;;;;;;;5020313;28;1211;-86
2021/12/19 03:02:03;;;;;;;;;;;;;;;;;;5023297;28;1396;-86
2021/12/19 03:04:29;;;;;;;;;;;;;;;;;;5038022;28;1412;-87
2021/12/19 03:06:54;;;;;;;;;;;;;;;;;;5038429;28;1275;-87
2021/12/19 03:09:42;;;;;;;;;;;;;;;;;;5038923;28;1874;-87
2021/12/19 03:20:20;;;;;;;;;;;;;;;;;;5036771;28;678;-86
2021/12/19 03:22:45;;;;;;;;;;;;;;;;;;5018234;28;1280;-87
2021/12/19 03:25:10;;;;;;;;;;;;;;;;;;5018800;28;1306;-86
2021/12/19 03:27:35;;;;;;;;;;;;;;;;;;5019061;28;1890;-86
2021/12/19 03:30:00;;;;;;;;;;;;;;;;;;5018943;28;1203;-87
2021/12/19 03:32:26;;;;;;;;;;;;;;;;;;5021257;28;1474;-86
2021/12/19 03:34:51;;;;;;;;;;;;;;;;;;5039506;28;1538;-86
2021/12/19 03:37:16;;;;;;;;;;;;;;;;;;5037633;28;1250;-86
2021/12/19 03:39:56;;;;;;;;;;;;;;;;;;5039500;28;1283;-87
2021/12/19 03:42:21;;;;;;;;;;;;;;;;;;5030145;28;1490;-86
2021/12/19 03:44:46;;;;;;;;;;;;;;;;;;5037238;28;1169;-86
2021/12/19 03:47:11;;;;;;;;;;;;;;;;;;5037991;28;1902;-87
2021/12/19 03:49:36;;;;;;;;;;;;;;;;;;5056696;28;1181;-87
2021/12/19 03:52:02;;;;;;;;;;;;;;;;;;5037222;28;1353;-86
2021/12/19 03:54:27;;;;;;;;;;;;;;;;;;5040031;28;1196;-86
2021/12/19 03:56:52;;;;;;;;;;;;;;;;;;5020148;28;1327;-87
2021/12/19 03:59:17;;;;;;;;;;;;;;;;;;5021769;28;1353;-87
2021/12/19 04:01:47;;;;;;;;;;;;;;;;;;5026160;28;1340;-87
2021/12/19 04:04:12;;;;;;;;;;;;;;;;;;5034625;28;1503;-87
2021/12/19 04:06:37;;;;;;;;;;;;;;;;;;5056117;28;814;-86
2021/12/19 04:09:02;;;;;;;;;;;;;;;;;;5025644;28;1855;-86
2021/12/19 04:11:30;;;;;;;;;;;;;;;;;;5019043;28;1271;-87
2021/12/19 04:13:55;;;;;;;;;;;;;;;;;;5053024;28;1483;-87
2021/12/19 04:16:20;;;;;;;;;;;;;;;;;;5056835;28;1200;-86
2021/12/19 04:18:45;;;;;;;;;;;;;;;;;;5055741;28;928;-87
2021/12/19 04:21:10;;;;;;;;;;;;;;;;;;5038853;28;1211;-87
2021/12/19 04:23:35;;;;;;;;;;;;;;;;;;5039492;28;1351;-85
2021/12/19 04:26:00;;;;;;;;;;;;;;;;;;5039117;28;1278;-86
2021/12/19 04:28:25;;;;;;;;;;;;;;;;;;5039233;28;1955;-87
2021/12/19 04:30:51;;;;;;;;;;;;;;;;;;5037595;28;1534;-86
2021/12/19 04:33:16;;;;;;;;;;;;;;;;;;5038652;28;1309;-86
2021/12/19 04:35:43;;;;;;;;;;;;;;;;;;5039402;28;1350;-86
2021/12/19 04:40:52;;;;;;;;;;;;;;;;;;5045423;28;1375;-86
2021/12/19 05:15:27;;;;;;;;;;;;;;;;;;5049569;28;1407;-86
2021/12/19 05:17:54;;;;;;;;;;;;;;;;;;5060289;28;858;-87
2021/12/19 05:20:22;;;;;;;;;;;;;;;;;;5031548;28;1529;-86
2021/12/19 05:22:49;;;;;;;;;;;;;;;;;;5040262;28;853;-86
2021/12/19 05:25:14;;;;;;;;;;;;;;;;;;5047497;22;2113;-84
2021/12/19 05:27:40;;;;;;;;;;;;;;;;;;5046886;28;1902;-84
2021/12/19 05:30:05;;;;;;;;;;;;;;;;;;5065120;28;1456;-85
2021/12/19 05:32:30;;;;;;;;;;;;;;;;;;5055987;28;1066;-84
2021/12/19 05:34:55;;;;;;;;;;;;;;;;;;5054745;28;1195;-86
2021/12/19 05:45:31;;;;;;;;;;;;;;;;;;5035740;28;1300;-85
2021/12/19 05:47:57;;;;;;;;;;;;;;;;;;5035784;28;1940;-85
2021/12/19 05:50:22;;;;;;;;;;;;;;;;;;5035480;28;1348;-85
2021/12/19 05:52:48;;;;;;;;;;;;;;;;;;5035743;28;1019;-86
2021/12/19 05:55:13;;;;;;;;;;;;;;;;;;5035524;28;1201;-85
2021/12/19 05:57:38;;;;;;;;;;;;;;;;;;5035062;28;896;-87
2021/12/19 06:00:03;;;;;;;;;;;;;;;;;;5035596;28;1309;-87
2021/12/19 06:02:29;;;;;;;;;;;;;;;;;;5035718;28;904;-84
2021/12/19 06:04:54;;;;;;;;;;;;;;;;;;5035528;28;757;-83
2021/12/19 06:07:19;;;;;;;;;;;;;;;;;;5033807;28;1949;-85
2021/12/19 06:09:44;;;;;;;;;;;;;;;;;;5035154;28;1506;-84
2021/12/19 06:12:09;;;;;;;;;;;;;;;;;;5035467;28;813;-85
2021/12/19 06:14:35;;;;;;;;;;;;;;;;;;5035209;28;850;-85
2021/12/19 06:17:00;;;;;;;;;;;;;;;;;;5035009;28;1267;-85
2021/12/19 06:19:25;;;;;;;;;;;;;;;;;;5034811;28;805;-85
2021/12/19 06:21:50;;;;;;;;;;;;;;;;;;5035028;28;797;-85
2021/12/19 06:24:15;;;;;;;;;;;;;;;;;;5035029;28;1003;-84
2021/12/19 06:26:40;;;;;;;;;;;;;;;;;;5033477;28;1296;-86
2021/12/19 06:29:05;;;;;;;;;;;;;;;;;;5034604;28;1902;-85
2021/12/19 06:31:30;;;;;;;;;;;;;;;;;;5034906;28;1042;-86
2021/12/19 06:33:55;;;;;;;;;;;;;;;;;;5033578;28;1215;-85
2021/12/19 06:36:20;;;;;;;;;;;;;;;;;;5034926;28;1212;-86
2021/12/19 06:38:45;;;;;;;;;;;;;;;;;;5034097;28;1497;-85
2021/12/19 06:41:10;;;;;;;;;;;;;;;;;;5019439;28;1098;-87
2021/12/19 06:43:35;;;;;;;;;;;;;;;;;;5014734;28;1041;-85
2021/12/19 06:46:00;;;;;;;;;;;;;;;;;;5014893;28;1190;-86
2021/12/19 06:48:26;;;;;;;;;;;;;;;;;;5014695;28;1938;-84
2021/12/19 06:50:51;;;;;;;;;;;;;;;;;;5015039;28;794;-85
2021/12/19 06:53:16;;;;;;;;;;;;;;;;;;5014641;28;840;-85
2021/12/19 06:55:41;;;;;;;;;;;;;;;;;;5014613;28;1189;-86
2021/12/19 06:58:06;;;;;;;;;;;;;;;;;;5014536;28;1055;-85
2021/12/19 07:00:31;;;;;;;;;;;;;;;;;;5031786;28;1534;-85
2021/12/19 07:02:57;;;;;;;;;;;;;;;;;;5034226;28;691;-85
2021/12/19 07:05:22;;;;;;;;;;;;;;;;;;5034247;28;1537;-84
2021/12/19 07:07:47;;;;;;;;;;;;;;;;;;5033975;28;1922;-86
2021/12/19 07:10:12;;;;;;;;;;;;;;;;;;5033187;28;1027;-85
2021/12/19 07:12:37;;;;;;;;;;;;;;;;;;5032888;28;1269;-86
2021/12/19 07:15:02;;;;;;;;;;;;;;;;;;5035854;28;1498;-86
2021/12/19 07:17:27;;;;;;;;;;;;;;;;;;5036129;28;1364;-85
2021/12/19 07:19:52;;;;;;;;;;;;;;;;;;5035056;28;863;-86
2021/12/19 07:22:18;;;;;;;;;;;;;;;;;;5032136;28;1018;-86
2021/12/19 07:24:44;;;;;;;;;;;;;;;;;;5030795;28;1227;-86
2021/12/19 07:27:09;;;;;;;;;;;;;;;;;;5021585;28;1470;-86
2021/12/19 07:29:34;;;;;;;;;;;;;;;;;;5034809;28;1898;-87
2021/12/19 07:31:59;;;;;;;;;;;;;;;;;;5035794;28;852;-86
2021/12/19 07:34:31;;;;;;;;;;;;;;;;;;5035179;28;1517;-86
2021/12/19 07:36:56;;;;;;;;;;;;;;;;;;5033833;28;1490;-87
2021/12/19 07:39:37;;;;;;;;;;;;;;;;;;5035667;28;1761;-87
2021/12/19 07:42:02;;;;;;;;;;;;;;;;;;5036205;28;915;-88
2021/12/19 07:44:27;;;;;;;;;;;;;;;;;;5035690;28;864;-88
2021/12/19 07:46:52;;;;;;;;;;;;;;;;;;5035222;28;1201;-87
2021/12/19 07:49:18;;;;;;;;;;;;;;;;;;5033977;28;1886;-85
2021/12/19 07:51:43;;;;;;;;;;;;;;;;;;5034283;28;1175;-87
2021/12/19 07:54:08;;;;;;;;;;;;;;;;;;5035244;28;778;-84
2021/12/19 07:56:33;;;;;;;;;;;;;;;;;;5035610;28;1287;-86
2021/12/19 07:58:58;;;;;;;;;;;;;;;;;;5035443;28;836;-87
2021/12/19 08:01:23;;;;;;;;;;;;;;;;;;5034559;28;1204;-85
2021/12/19 08:03:48;;;;;;;;;;;;;;;;;;5035617;28;1066;-85
2021/12/19 08:06:13;;;;;;;;;;;;;;;;;;5035988;28;1189;-85
2021/12/19 08:08:38;;;;;;;;;;;;;;;;;;5035116;28;1871;-86
2021/12/19 08:13:48;;;;;;;;;;;;;;;;;;5035481;28;604;-86
2021/12/19 08:16:13;;;;;;;;;;;;;;;;;;5035016;28;1291;-86
2021/12/19 08:18:38;;;;;;;;;;;;;;;;;;5034298;28;1291;-86
2021/12/19 08:21:03;;;;;;;;;;;;;;;;;;5036977;28;1217;-86
2021/12/19 08:23:28;;;;;;;;;;;;;;;;;;5040050;28;924;-86
2021/12/19 08:25:53;;;;;;;;;;;;;;;;;;5038954;28;1223;-87
2021/12/19 08:28:18;;;;;;;;;;;;;;;;;;5039919;28;1882;-86
2021/12/19 08:30:43;;;;;;;;;;;;;;;;;;5037859;28;1305;-87
2021/12/19 08:33:08;;;;;;;;;;;;;;;;;;5038194;28;1295;-84
2021/12/19 08:35:33;;;;;;;;;;;;;;;;;;5039615;28;1185;-85
2021/12/19 08:37:58;;;;;;;;;;;;;;;;;;5039348;28;837;-87
2021/12/19 08:40:24;;;;;;;;;;;;;;;;;;5039161;28;1078;-87
2021/12/19 08:42:49;;;;;;;;;;;;;;;;;;5036367;28;1230;-87
2021/12/19 08:45:15;;;;;;;;;;;;;;;;;;5035745;28;1361;-86
2021/12/19 08:47:40;;;;;;;;;;;;;;;;;;5035706;28;1890;-86
2021/12/19 08:50:05;;;;;;;;;;;;;;;;;;5035762;28;1263;-86
2021/12/19 08:52:30;;;;;;;;;;;;;;;;;;5035754;28;1282;-87
2021/12/19 08:54:55;;;;;;;;;;;;;;;;;;5037232;28;1003;-86
2021/12/19 08:57:21;;;;;;;;;;;;;;;;;;5035625;28;1256;-85
2021/12/19 08:59:47;;;;;;;;;;;;;;;;;;5037427;28;952;-87
2021/12/19 09:02:12;;;;;;;;;;;;;;;;;;5037065;28;849;-88
2021/12/19 09:04:37;;;;;;;;;;;;;;;;;;5036783;28;829;-89
2021/12/19 09:07:02;;;;;;;;;;;;;;;;;;5035571;28;1278;-89
2021/12/19 09:09:28;;;;;;;;;;;;;;;;;;5035496;28;1894;-87
2021/12/19 09:11:53;;;;;;;;;;;;;;;;;;5037138;28;860;-88
2021/12/19 09:14:18;;;;;;;;;;;;;;;;;;5036023;28;1200;-87
2021/12/19 09:16:43;;;;;;;;;;;;;;;;;;5035613;28;1346;-87
2021/12/19 09:19:08;;;;;;;;;;;;;;;;;;5036538;28;1078;-87
2021/12/19 09:21:33;;;;;;;;;;;;;;;;;;5036624;28;1000;-87
2021/12/19 09:23:58;;;;;;;;;;;;;;;;;;5035399;28;1273;-88
2021/12/19 09:26:23;;;;;;;;;;;;;;;;;;5035580;28;1362;-87
2021/12/19 09:28:48;;;;;;;;;;;;;;;;;;5036674;28;1902;-88
2021/12/19 09:31:14;;;;;;;;;;;;;;;;;;5035441;28;1228;-86
2021/12/19 09:33:39;;;;;;;;;;;;;;;;;;5036032;28;996;-86
2021/12/19 09:36:04;;;;;;;;;;;;;;;;;;5035371;28;1211;-87
2021/12/19 09:38:29;;;;;;;;;;;;;;;;;;5035811;28;1399;-86
2021/12/19 09:41:11;;;;;;;;;;;;;;;;;;5036953;28;1470;-88
2021/12/19 09:43:43;;;;;;;;;;;;;;;;;;5036007;28;1305;-89
2021/12/19 09:46:08;;;;;;;;;;;;;;;;;;5036310;28;1326;-87
2021/12/19 09:48:33;;;;;;;;;;;;;;;;;;5038907;28;1945;-88
2021/12/19 09:50:58;;;;;;;;;;;;;;;;;;5037330;28;1339;-90
2021/12/19 09:53:23;;;;;;;;;;;;;;;;;;5034866;28;1267;-87
2021/12/19 09:55:48;;;;;;;;;;;;;;;;;;5035103;28;1323;-87
2021/12/19 09:58:13;;;;;;;;;;;;;;;;;;5035201;28;1335;-87
2021/12/19 10:00:38;;;;;;;;;;;;;;;;;;5035922;28;1071;-86
2021/12/19 10:03:03;;;;;;;;;;;;;;;;;;5035004;28;1292;-88
2021/12/19 10:05:28;;;;;;;;;;;;;;;;;;5017819;28;1262;-86
2021/12/19 10:07:53;;;;;;;;;;;;;;;;;;5016190;28;1942;-87
2021/12/19 10:10:26;;;;;;;;;;;;;;;;;;5015998;28;884;-87
2021/12/19 10:12:51;;;;;;;;;;;;;;;;;;5014974;28;1229;-89
2021/12/19 10:15:19;;;;;;;;;;;;;;;;;;5019513;28;1341;-88
2021/12/19 10:17:45;;;;;;;;;;;;;;;;;;5034268;28;1351;-87
2021/12/19 10:20:10;;;;;;;;;;;;;;;;;;5034082;28;1253;-89
2021/12/19 10:22:35;;;;;;;;;;;;;;;;;;5034755;28;1229;-87
2021/12/19 10:25:00;;;;;;;;;;;;;;;;;;5035952;28;830;-89
2021/12/19 10:27:25;;;;;;;;;;;;;;;;;;5033866;28;1976;-88
2021/12/19 10:29:50;;;;;;;;;;;;;;;;;;5034396;28;1180;-87
2021/12/19 10:32:15;;;;;;;;;;;;;;;;;;5034014;28;1392;-86
2021/12/19 10:34:40;;;;;;;;;;;;;;;;;;5034994;28;1004;-87
2021/12/19 10:37:05;;;;;;;;;;;;;;;;;;5020216;28;1375;-88
2021/12/19 10:39:31;;;;;;;;;;;;;;;;;;5014784;28;1101;-89
2021/12/19 10:41:56;;;;;;;;;;;;;;;;;;5014699;28;1272;-88
2021/12/19 10:47:05;;;;;;;;;;;;;;;;;;5017044;28;1205;-87
2021/12/19 10:49:33;;;;;;;;;;;;;;;;;;5014191;28;1953;-88
2021/12/19 10:52:01;;;;;;;;;;;;;;;;;;5014274;28;1157;-87
2021/12/19 10:54:26;;;;;;;;;;;;;;;;;;5016233;28;897;-87
2021/12/19 10:56:51;;;;;;;;;;;;;;;;;;5018620;28;1494;-87
2021/12/19 10:59:17;;;;;;;;;;;;;;;;;;5036064;28;1125;-89
2021/12/19 11:01:44;;;;;;;;;;;;;;;;;;5036694;28;794;-86
2021/12/19 11:04:10;;;;;;;;;;;;;;;;;;5034676;28;1799;-85
2021/12/19 11:06:35;;;;;;;;;;;;;;;;;;5036468;28;1858;-88
2021/12/19 11:09:00;;;;;;;;;;;;;;;;;;5034372;28;1990;-87
2021/12/19 11:11:25;;;;;;;;;;;;;;;;;;5036952;28;1235;-88
2021/12/19 11:13:50;;;;;;;;;;;;;;;;;;5038287;28;1355;-86
2021/12/19 11:16:15;;;;;;;;;;;;;;;;;;5034000;28;1749;-89
2021/12/19 11:18:41;;;;;;;;;;;;;;;;;;5033837;28;1200;-89
2021/12/19 11:21:06;;;;;;;;;;;;;;;;;;5035453;28;769;-90
2021/12/19 11:23:31;;;;;;;;;;;;;;;;;;5033991;28;1219;-88
2021/12/19 11:28:23;;;;;;;;;;;;;;;;;;5067596;28;1902;-82
2021/12/19 11:30:48;;;;;;;;;;;;;;;;;;5078559;28;1003;-83
2021/12/19 11:33:14;;;;;;;;;;;;;;;;;;5076088;28;1392;-82
2021/12/19 11:35:39;;;;;;;;;;;;;;;;;;5077665;28;1844;-83
2021/12/19 11:38:04;;;;;;;;;;;;;;;;;;5072190;28;1181;-84
2021/12/19 11:40:31;;;;;;;;;;;;;;;;;;5070680;28;1764;-82
2021/12/19 11:42:56;;;;;;;;;;;;;;;;;;5080659;28;1542;-82
2021/12/19 11:45:38;;;;;;;;;;;;;;;;;;5063991;28;1717;-82
2021/12/19 11:48:11;;;;;;;;;;;;;;;;;;5063258;28;1882;-81
2021/12/19 11:50:36;;;;;;;;;;;;;;;;;;5063501;28;923;-82
2021/12/19 11:53:01;;;;;;;;;;;;;;;;;;5068355;28;1673;-84
2021/12/19 11:55:26;;;;;;;;;;;;;;;;;;5079111;28;1081;-83
2021/12/19 11:57:51;;;;;;;;;;;;;;;;;;5077876;28;1931;-84
2021/12/19 12:00:16;;;;;;;;;;;;;;;;;;5063694;28;1557;-84
2021/12/19 12:02:41;;;;;;;;;;;;;;;;;;5055824;28;1285;-82
2021/12/19 12:05:06;;;;;;;;;;;;;;;;;;5056047;28;1239;-82
2021/12/19 12:07:31;;;;;;;;;;;;;;;;;;5056464;28;1959;-83
2021/12/19 12:09:57;;;;;;;;;;;;;;;;;;5053944;28;1646;-84
2021/12/19 12:12:31;;;;;;;;;;;;;;;;;;5055085;28;1348;-85
2021/12/19 12:14:58;;;;;;;;;;;;;;;;;;5055533;28;1335;-82
2021/12/19 12:17:25;;;;;;;;;;;;;;;;;;5078671;28;1260;-81
2021/12/19 12:19:51;;;;;;;;;;;;;;;;;;5075279;28;1436;-82
2021/12/19 12:22:16;;;;;;;;;;;;;;;;;;5074573;28;1326;-82
2021/12/19 12:24:41;;;;;;;;;;;;;;;;;;5075095;28;1223;-81
2021/12/19 12:27:06;;;;;;;;;;;;;;;;;;5075149;28;1280;-82
2021/12/19 12:29:31;;;;;;;;;;;;;;;;;;5063748;28;1922;-84
2021/12/19 12:31:56;;;;;;;;;;;;;;;;;;5056023;28;1007;-81
2021/12/19 12:34:21;;;;;;;;;;;;;;;;;;5054630;28;1514;-82
2021/12/19 12:36:46;;;;;;;;;;;;;;;;;;5054920;28;1379;-81
2021/12/19 12:39:13;;;;;;;;;;;;;;;;;;5054048;28;1838;-82
2021/12/19 12:44:04;;;;;;;;;;;;;;;;;;5077021;28;772;-84
2021/12/19 12:46:29;;;;;;;;;;;;;;;;;;5075279;28;1247;-83
2021/12/19 12:48:54;;;;;;;;;;;;;;;;;;5076945;28;1941;-83
2021/12/19 12:51:19;;;;;;;;;;;;;;;;;;5075168;28;1341;-82
2021/12/19 12:53:44;;;;;;;;;;;;;;;;;;5068832;28;1712;-82
2021/12/19 12:56:11;;;;;;;;;;;;;;;;;;5075322;28;1628;-82
2021/12/19 12:58:36;;;;;;;;;;;;;;;;;;5075574;28;1254;-84
2021/12/19 13:01:01;;;;;;;;;;;;;;;;;;5066319;28;1638;-84
2021/12/19 13:03:30;;;;;;;;;;;;;;;;;;5057649;28;1589;-84
2021/12/19 13:05:55;;;;;;;;;;;;;;;;;;5074164;28;1250;-82
2021/12/19 13:08:21;;;;;;;;;;;;;;;;;;5077661;28;1937;-84
2021/12/19 13:10:46;;;;;;;;;;;;;;;;;;5073580;28;1645;-82
2021/12/19 13:13:11;;;;;;;;;;;;;;;;;;5060529;28;999;-82
2021/12/19 13:15:36;;;;;;;;;;;;;;;;;;5058600;28;1338;-82
2021/12/19 13:18:01;;;;;;;;;;;;;;;;;;5076224;28;1745;-82
2021/12/19 13:20:28;;;;;;;;;;;;;;;;;;5078553;28;1317;-83
2021/12/19 13:22:53;;;;;;;;;;;;;;;;;;5080022;28;832;-85
2021/12/19 13:25:19;;;;;;;;;;;;;;;;;;5078358;28;1132;-83
2021/12/19 13:27:44;;;;;;;;;;;;;;;;;;5079430;28;1965;-84
2021/12/19 13:30:09;;;;;;;;;;;;;;;;;;5079156;28;1078;-81
2021/12/19 13:32:34;;;;;;;;;;;;;;;;;;5063685;28;1584;-82
2021/12/19 13:34:59;;;;;;;;;;;;;;;;;;5058102;28;1696;-83
2021/12/19 13:37:24;;;;;;;;;;;;;;;;;;5070841;28;1425;-84
2021/12/19 13:39:49;;;;;;;;;;;;;;;;;;5057774;28;1038;-83
2021/12/19 13:42:14;;;;;;;;;;;;;;;;;;5060980;28;1759;-82
2021/12/19 13:44:39;;;;;;;;;;;;;;;;;;5076609;28;1672;-82
2021/12/19 13:47:05;;;;;;;;;;;;;;;;;;5078136;28;1201;-81
2021/12/19 13:49:30;;;;;;;;;;;;;;;;;;5077176;28;1878;-82
2021/12/19 13:51:55;;;;;;;;;;;;;;;;;;5077408;28;1220;-83
2021/12/19 13:54:20;;;;;;;;;;;;;;;;;;5071156;28;1629;-82
2021/12/19 13:56:45;;;;;;;;;;;;;;;;;;5063278;28;1721;-83
2021/12/19 13:59:10;;;;;;;;;;;;;;;;;;5079958;28;1046;-82
2021/12/19 14:01:35;;;;;;;;;;;;;;;;;;5077464;28;1353;-86
2021/12/19 14:04:00;;;;;;;;;;;;;;;;;;5076286;28;1465;-84
2021/12/19 14:06:25;;;;;;;;;;;;;;;;;;5068970;28;1613;-86
2021/12/19 14:08:50;;;;;;;;;;;;;;;;;;5056553;28;1953;-85
2021/12/19 14:11:16;;;;;;;;;;;;;;;;;;5066956;28;1523;-85
2021/12/19 14:13:43;;;;;;;;;;;;;;;;;;5079417;28;860;-84
2021/12/19 14:16:08;;;;;;;;;;;;;;;;;;5077601;28;1345;-84
2021/12/19 14:18:33;;;;;;;;;;;;;;;;;;5077604;28;1427;-84
2021/12/19 14:20:58;;;;;;;;;;;;;;;;;;5078556;28;1321;-88
2021/12/19 14:23:23;;;;;;;;;;;;;;;;;;5081019;28;1332;-86
2021/12/19 14:25:49;;;;;;;;;;;;;;;;;;5068528;28;1839;-85
2021/12/19 14:28:14;;;;;;;;;;;;;;;;;;5064035;28;1941;-85
2021/12/19 14:30:39;;;;;;;;;;;;;;;;;;5075289;28;1415;-84
2021/12/19 14:33:04;;;;;;;;;;;;;;;;;;5079039;28;1401;-85
2021/12/19 14:35:29;;;;;;;;;;;;;;;;;;5078879;28;1098;-85
2021/12/19 14:37:54;;;;;;;;;;;;;;;;;;5061627;28;1669;-83
2021/12/19 14:40:19;;;;;;;;;;;;;;;;;;5064109;28;1371;-83
2021/12/19 14:42:44;;;;;;;;;;;;;;;;;;5059701;28;1318;-85
2021/12/19 14:45:09;;;;;;;;;;;;;;;;;;5059691;28;1334;-85
2021/12/19 14:47:34;;;;;;;;;;;;;;;;;;5059850;28;1898;-86
2021/12/19 14:49:59;;;;;;;;;;;;;;;;;;5060991;28;1721;-84
2021/12/19 14:52:25;;;;;;;;;;;;;;;;;;5060558;28;1830;-83
2021/12/19 14:54:50;;;;;;;;;;;;;;;;;;5059973;28;1407;-83
2021/12/19 14:57:15;;;;;;;;;;;;;;;;;;5059714;28;1282;-85
2021/12/19 14:59:40;;;;;;;;;;;;;;;;;;5062324;28;1816;-83
2021/12/19 15:02:06;;;;;;;;;;;;;;;;;;5078454;28;1288;-82
2021/12/19 15:04:31;;;;;;;;;;;;;;;;;;5074222;28;1473;-82
2021/12/19 15:06:59;;;;;;;;;;;;;;;;;;5073901;28;1696;-84
2021/12/19 15:09:27;;;;;;;;;;;;;;;;;;5058796;28;1941;-86
2021/12/19 15:11:52;;;;;;;;;;;;;;;;;;5074126;28;1679;-84
2021/12/19 15:14:17;;;;;;;;;;;;;;;;;;5078177;28;1329;-82
2021/12/19 15:16:42;;;;;;;;;;;;;;;;;;5078055;28;1377;-83
2021/12/19 15:19:07;;;;;;;;;;;;;;;;;;5077888;28;1353;-82
2021/12/19 15:21:32;;;;;;;;;;;;;;;;;;5071404;28;1738;-83
2021/12/19 15:23:59;;;;;;;;;;;;;;;;;;5059151;28;948;-83
2021/12/19 15:26:25;;;;;;;;;;;;;;;;;;5057594;28;1434;-86
2021/12/19 15:28:50;;;;;;;;;;;;;;;;;;5056357;28;1898;-85
2021/12/19 15:31:15;;;;;;;;;;;;;;;;;;5057349;28;1350;-82
2021/12/19 15:33:41;;;;;;;;;;;;;;;;;;5062122;28;1739;-82
2021/12/19 15:36:06;;;;;;;;;;;;;;;;;;5058087;28;1288;-82
2021/12/19 15:38:31;;;;;;;;;;;;;;;;;;5067002;28;1755;-82
2021/12/19 15:40:56;;;;;;;;;;;;;;;;;;5077786;28;1393;-85
2021/12/19 15:43:21;;;;;;;;;;;;;;;;;;5059662;28;1324;-84
2021/12/19 15:45:46;;;;;;;;;;;;;;;;;;5057779;28;1895;-83
2021/12/19 15:48:11;;;;;;;;;;;;;;;;;;5056733;28;1945;-84
2021/12/19 15:50:37;;;;;;;;;;;;;;;;;;5060977;28;1676;-85
2021/12/19 15:53:03;;;;;;;;;;;;;;;;;;5075548;28;1214;-84
2021/12/19 15:55:28;;;;;;;;;;;;;;;;;;5075788;28;1238;-84
2021/12/19 15:57:53;;;;;;;;;;;;;;;;;;5076102;28;1210;-85
2021/12/19 16:00:19;;;;;;;;;;;;;;;;;;5074754;28;1306;-86
2021/12/19 16:02:44;;;;;;;;;;;;;;;;;;5073915;28;1254;-86
2021/12/19 16:05:09;;;;;;;;;;;;;;;;;;5073780;28;1235;-86
2021/12/19 16:07:34;;;;;;;;;;;;;;;;;;5072093;28;1909;-86
2021/12/19 16:09:59;;;;;;;;;;;;;;;;;;5073559;28;1702;-84
2021/12/19 16:12:24;;;;;;;;;;;;;;;;;;5065886;28;1702;-85
2021/12/19 16:14:49;;;;;;;;;;;;;;;;;;5078041;28;1680;-84
2021/12/19 16:17:14;;;;;;;;;;;;;;;;;;5077532;28;1310;-85
2021/12/19 16:19:39;;;;;;;;;;;;;;;;;;5076684;28;1390;-86
2021/12/19 16:22:04;;;;;;;;;;;;;;;;;;5075098;28;1538;-87
2021/12/19 16:24:29;;;;;;;;;;;;;;;;;;5056314;28;1709;-85
2021/12/19 16:26:54;;;;;;;;;;;;;;;;;;5057512;28;1366;-84
2021/12/19 16:29:20;;;;;;;;;;;;;;;;;;5056682;28;1879;-85
2021/12/19 16:31:45;;;;;;;;;;;;;;;;;;5057559;28;1284;-87
2021/12/19 16:34:10;;;;;;;;;;;;;;;;;;5059367;28;1047;-84
2021/12/19 16:36:35;;;;;;;;;;;;;;;;;;5058555;28;1295;-87
2021/12/19 16:39:00;;;;;;;;;;;;;;;;;;5057842;28;1304;-86
2021/12/19 16:41:42;;;;;;;;;;;;;;;;;;5061697;28;1741;-88
2021/12/19 16:44:07;;;;;;;;;;;;;;;;;;5062267;28;1381;-86
2021/12/19 16:46:32;;;;;;;;;;;;;;;;;;5064357;28;1716;-87
2021/12/19 16:48:57;;;;;;;;;;;;;;;;;;5084504;28;1890;-87
2021/12/19 16:51:22;;;;;;;;;;;;;;;;;;5085033;28;1226;-87
2021/12/19 16:53:47;;;;;;;;;;;;;;;;;;5079476;28;1401;-88
2021/12/19 16:56:12;;;;;;;;;;;;;;;;;;5081373;28;1197;-85
2021/12/19 16:58:38;;;;;;;;;;;;;;;;;;5081706;28;1337;-85
2021/12/19 17:01:03;;;;;;;;;;;;;;;;;;5072863;28;1572;-85
2021/12/19 17:03:29;;;;;;;;;;;;;;;;;;5065777;28;1361;-88
2021/12/19 17:05:54;;;;;;;;;;;;;;;;;;5078968;28;1705;-86
2021/12/19 17:08:19;;;;;;;;;;;;;;;;;;5086525;28;1886;-87
2021/12/19 17:10:44;;;;;;;;;;;;;;;;;;5086600;28;1337;-89
2021/12/19 17:13:16;;;;;;;;;;;;;;;;;;5067819;28;1835;-86
2021/12/19 17:15:41;;;;;;;;;;;;;;;;;;5067363;28;1708;-86
2021/12/19 17:18:08;;;;;;;;;;;;;;;;;;5064834;28;1292;-85
2021/12/19 17:20:37;;;;;;;;;;;;;;;;;;5065061;28;1347;-86
2021/12/19 17:23:02;;;;;;;;;;;;;;;;;;5066891;28;909;-85
2021/12/19 17:25:27;;;;;;;;;;;;;;;;;;5071873;28;1634;-87
2021/12/19 17:27:53;;;;;;;;;;;;;;;;;;5055619;23;3607;-90
2021/12/19 17:30:18;;;;;;;;;;;;;;;;;;5035228;28;1221;-89
2021/12/19 17:32:43;;;;;;;;;;;;;;;;;;5036322;28;848;-89
2021/12/19 17:35:08;;;;;;;;;;;;;;;;;;5036659;28;999;-89
2021/12/19 17:37:34;;;;;;;;;;;;;;;;;;5034722;28;1233;-87
2021/12/19 17:40:06;;;;;;;;;;;;;;;;;;5034454;28;1529;-87
2021/12/19 17:42:31;;;;;;;;;;;;;;;;;;5035532;28;1213;-88
2021/12/19 17:44:56;;;;;;;;;;;;;;;;;;5035821;28;1209;-88
2021/12/19 17:47:22;;;;;;;;;;;;;;;;;;5036069;28;1303;-88
2021/12/19 17:49:47;;;;;;;;;;;;;;;;;;5034561;28;1886;-88
2021/12/19 17:52:12;;;;;;;;;;;;;;;;;;5034582;28;1244;-90
2021/12/19 17:54:37;;;;;;;;;;;;;;;;;;5033963;28;1434;-88
2021/12/19 17:57:03;;;;;;;;;;;;;;;;;;5035949;28;1204;-87
2021/12/19 17:59:28;;;;;;;;;;;;;;;;;;5035804;28;853;-89
2021/12/19 18:01:53;;;;;;;;;;;;;;;;;;5034782;28;1239;-90
2021/12/19 18:04:20;;;;;;;;;;;;;;;;;;5035989;28;971;-87
2021/12/19 18:06:46;;;;;;;;;;;;;;;;;;5034441;28;1694;-89
2021/12/19 18:09:11;;;;;;;;;;;;;;;;;;5034005;28;1957;-89
2021/12/19 18:11:36;;;;;;;;;;;;;;;;;;5034641;28;1278;-87